DCCHB EDLA-ELLX
Flight info
| Callsign | DCCHB |
|---|---|
| Flight time | 0h 34m |
| Altitude | 23000 |
| Route | DCT NVO/N0417F230 IFR Q760 ODVUX T894 BITBU DCT BITBU |
| Aircraft | LJ35/M-SGHRWXY/SB1 |
Departure
| Time | 2026-05-06 18:38 |
|---|---|
| Airport | Arnsberg-Menden Airfield (EDLA) |
Arrival
| Time | 2026-05-06 19:13 |
|---|---|
| Airport | Luxembourg-Findel International Airport (ELLX) |
| Time | Latitude | Longitude | Altitude | Speed | Heading |
|---|---|---|---|---|---|
| 2026-05-06 18:30 | 51.48249 | 7.89870 | 783 ft | 0 kts | 255° |
| 2026-05-06 18:36 | 51.48248 | 7.89852 | 784 ft | 5 kts | 281° |
| 2026-05-06 18:36 | 51.48279 | 7.89804 | 786 ft | 7 kts | 320° |
| 2026-05-06 18:36 | 51.48268 | 7.89728 | 786 ft | 9 kts | 227° |
| 2026-05-06 18:36 | 51.48227 | 7.89651 | 789 ft | 9 kts | 229° |
| 2026-05-06 18:37 | 51.48185 | 7.89574 | 792 ft | 9 kts | 229° |
| 2026-05-06 18:37 | 51.48151 | 7.89511 | 792 ft | 13 kts | 229° |
| 2026-05-06 18:37 | 51.48076 | 7.89372 | 794 ft | 9 kts | 236° |
| 2026-05-06 18:37 | 51.48096 | 7.89303 | 795 ft | 6 kts | 358° |
| 2026-05-06 18:38 | 51.48122 | 7.89338 | 794 ft | 28 kts | 48° |
| 2026-05-06 18:38 | 51.48532 | 7.90092 | 775 ft | 147 kts | 48° |
| 2026-05-06 18:38 | 51.49275 | 7.91478 | 1215 ft | 172 kts | 50° |
| 2026-05-06 18:38 | 51.49797 | 7.93252 | 1644 ft | 181 kts | 75° |
| 2026-05-06 18:39 | 51.49976 | 7.95234 | 2002 ft | 181 kts | 80° |
| 2026-05-06 18:39 | 51.50150 | 7.97335 | 2018 ft | 198 kts | 79° |
| 2026-05-06 18:39 | 51.50282 | 7.99622 | 2013 ft | 213 kts | 92° |
| 2026-05-06 18:40 | 51.48391 | 8.03459 | 2022 ft | 245 kts | 158° |
| 2026-05-06 18:40 | 51.46690 | 8.03741 | 2019 ft | 251 kts | 189° |
| 2026-05-06 18:40 | 51.45108 | 8.02604 | 2018 ft | 252 kts | 220° |
| 2026-05-06 18:40 | 51.44081 | 8.00354 | 2018 ft | 253 kts | 249° |
| 2026-05-06 18:41 | 51.43353 | 7.97792 | 2013 ft | 255 kts | 236° |
| 2026-05-06 18:41 | 51.42260 | 7.95575 | 2022 ft | 252 kts | 232° |
| 2026-05-06 18:41 | 51.41190 | 7.93399 | 2015 ft | 251 kts | 233° |
| 2026-05-06 18:41 | 51.40207 | 7.91082 | 2013 ft | 245 kts | 243° |
| 2026-05-06 18:42 | 51.39471 | 7.88654 | 2030 ft | 241 kts | 247° |
| 2026-05-06 18:42 | 51.38786 | 7.86268 | 2210 ft | 238 kts | 247° |
| 2026-05-06 18:42 | 51.38099 | 7.83855 | 2351 ft | 237 kts | 247° |
| 2026-05-06 18:42 | 51.37417 | 7.81449 | 2502 ft | 237 kts | 247° |
| 2026-05-06 18:43 | 51.36726 | 7.79016 | 2618 ft | 237 kts | 247° |
| 2026-05-06 18:43 | 51.36050 | 7.76628 | 2761 ft | 241 kts | 248° |
| 2026-05-06 18:43 | 51.35357 | 7.74188 | 2927 ft | 241 kts | 248° |
| 2026-05-06 18:43 | 51.34659 | 7.71745 | 3102 ft | 241 kts | 247° |
| 2026-05-06 18:44 | 51.33962 | 7.69310 | 3263 ft | 240 kts | 247° |
| 2026-05-06 18:44 | 51.33269 | 7.66895 | 3425 ft | 239 kts | 247° |
| 2026-05-06 18:44 | 51.32516 | 7.64473 | 3674 ft | 242 kts | 243° |
| 2026-05-06 18:44 | 51.31658 | 7.62135 | 3981 ft | 246 kts | 240° |
| 2026-05-06 18:45 | 51.30707 | 7.59838 | 4311 ft | 253 kts | 237° |
| 2026-05-06 18:45 | 51.29708 | 7.57513 | 4648 ft | 257 kts | 237° |
| 2026-05-06 18:45 | 51.28686 | 7.55139 | 4994 ft | 265 kts | 237° |
| 2026-05-06 18:45 | 51.27961 | 7.53445 | 5194 ft | 280 kts | 237° |
| 2026-05-06 18:46 | 51.26530 | 7.50101 | 5611 ft | 268 kts | 237° |
| 2026-05-06 18:46 | 51.25496 | 7.47695 | 5859 ft | 260 kts | 237° |
| 2026-05-06 18:46 | 51.24467 | 7.45308 | 5862 ft | 262 kts | 237° |
| 2026-05-06 18:46 | 51.23438 | 7.42886 | 5861 ft | 265 kts | 240° |
| 2026-05-06 18:47 | 51.22583 | 7.40260 | 5860 ft | 269 kts | 247° |
| 2026-05-06 18:47 | 51.21811 | 7.37523 | 5874 ft | 273 kts | 248° |
| 2026-05-06 18:47 | 51.21302 | 7.35692 | 5874 ft | 273 kts | 248° |
| 2026-05-06 18:47 | 51.20290 | 7.31985 | 5881 ft | 270 kts | 250° |
| 2026-05-06 18:48 | 51.19839 | 7.30097 | 5888 ft | 269 kts | 252° |
| 2026-05-06 18:48 | 51.19209 | 7.27332 | 5885 ft | 268 kts | 252° |
| 2026-05-06 18:48 | 51.18576 | 7.24553 | 5882 ft | 265 kts | 252° |
| 2026-05-06 18:48 | 51.17950 | 7.21802 | 5877 ft | 263 kts | 252° |
| 2026-05-06 18:49 | 51.17319 | 7.19032 | 5881 ft | 261 kts | 252° |
| 2026-05-06 18:49 | 51.16710 | 7.16351 | 5872 ft | 262 kts | 252° |
| 2026-05-06 18:49 | 51.16085 | 7.13613 | 5879 ft | 264 kts | 252° |
| 2026-05-06 18:49 | 51.15459 | 7.10865 | 5877 ft | 263 kts | 252° |
| 2026-05-06 18:50 | 51.14833 | 7.08129 | 5876 ft | 264 kts | 252° |
| 2026-05-06 18:50 | 51.14201 | 7.05374 | 5879 ft | 267 kts | 252° |
| 2026-05-06 18:50 | 51.13563 | 7.02584 | 5880 ft | 269 kts | 252° |
| 2026-05-06 18:50 | 51.12900 | 6.99793 | 5879 ft | 271 kts | 249° |
| 2026-05-06 18:51 | 51.12060 | 6.97098 | 5885 ft | 273 kts | 243° |
| 2026-05-06 18:51 | 51.11125 | 6.94464 | 5889 ft | 274 kts | 242° |
| 2026-05-06 18:51 | 51.10169 | 6.91830 | 5887 ft | 275 kts | 241° |
| 2026-05-06 18:51 | 51.09156 | 6.89242 | 5888 ft | 276 kts | 240° |
| 2026-05-06 18:52 | 51.08134 | 6.86657 | 5889 ft | 277 kts | 240° |
| 2026-05-06 18:52 | 51.07109 | 6.84072 | 5895 ft | 277 kts | 240° |
| 2026-05-06 18:52 | 51.06080 | 6.81477 | 5900 ft | 277 kts | 240° |
| 2026-05-06 18:52 | 51.05060 | 6.78906 | 5830 ft | 273 kts | 240° |
| 2026-05-06 18:53 | 51.04056 | 6.76369 | 5606 ft | 270 kts | 240° |
| 2026-05-06 18:53 | 51.03059 | 6.73853 | 5360 ft | 268 kts | 239° |
| 2026-05-06 18:53 | 51.01856 | 6.71589 | 5111 ft | 268 kts | 226° |
| 2026-05-06 18:53 | 51.00393 | 6.69761 | 4859 ft | 269 kts | 216° |
| 2026-05-06 18:54 | 50.98866 | 6.68049 | 4585 ft | 269 kts | 217° |
| 2026-05-06 18:54 | 50.97340 | 6.66320 | 4297 ft | 270 kts | 214° |
| 2026-05-06 18:54 | 50.95650 | 6.64982 | 4011 ft | 273 kts | 202° |
| 2026-05-06 18:54 | 50.93838 | 6.64066 | 3712 ft | 274 kts | 194° |
| 2026-05-06 18:55 | 50.91973 | 6.63429 | 3426 ft | 274 kts | 192° |
| 2026-05-06 18:55 | 50.90094 | 6.62987 | 3148 ft | 272 kts | 187° |
| 2026-05-06 18:55 | 50.88221 | 6.62842 | 3009 ft | 265 kts | 180° |
| 2026-05-06 18:55 | 50.86401 | 6.62844 | 3005 ft | 260 kts | 180° |
| 2026-05-06 18:56 | 50.84599 | 6.62846 | 2996 ft | 256 kts | 180° |
| 2026-05-06 18:56 | 50.82829 | 6.62854 | 2994 ft | 254 kts | 180° |
| 2026-05-06 18:56 | 50.81074 | 6.62870 | 2996 ft | 254 kts | 180° |
| 2026-05-06 18:56 | 50.79265 | 6.62877 | 3246 ft | 267 kts | 180° |
| 2026-05-06 18:57 | 50.77354 | 6.62897 | 3705 ft | 276 kts | 180° |
| 2026-05-06 18:57 | 50.75447 | 6.62919 | 4148 ft | 276 kts | 180° |
| 2026-05-06 18:57 | 50.73469 | 6.62911 | 4659 ft | 296 kts | 182° |
| 2026-05-06 18:57 | 50.71342 | 6.62760 | 5306 ft | 304 kts | 184° |
| 2026-05-06 18:58 | 50.69333 | 6.62564 | 6308 ft | 277 kts | 185° |
| 2026-05-06 18:58 | 50.67414 | 6.62376 | 7170 ft | 277 kts | 184° |
| 2026-05-06 18:58 | 50.65477 | 6.62200 | 7990 ft | 278 kts | 184° |
| 2026-05-06 18:58 | 50.63523 | 6.62026 | 8609 ft | 295 kts | 184° |
| 2026-05-06 18:59 | 50.61444 | 6.61836 | 9040 ft | 301 kts | 183° |
| 2026-05-06 18:59 | 50.59369 | 6.61648 | 9395 ft | 297 kts | 183° |
| 2026-05-06 18:59 | 50.57303 | 6.61458 | 9731 ft | 299 kts | 183° |
| 2026-05-06 18:59 | 50.55234 | 6.61268 | 9878 ft | 295 kts | 184° |
| 2026-05-06 19:00 | 50.53131 | 6.61079 | 10099 ft | 316 kts | 184° |
| 2026-05-06 19:00 | 50.50882 | 6.60874 | 11360 ft | 327 kts | 184° |
| 2026-05-06 19:00 | 50.48660 | 6.60673 | 12933 ft | 322 kts | 185° |
| 2026-05-06 19:00 | 50.46413 | 6.60468 | 14429 ft | 325 kts | 185° |
| 2026-05-06 19:01 | 50.44199 | 6.60269 | 16126 ft | 315 kts | 185° |
| 2026-05-06 19:01 | 50.42028 | 6.60076 | 17760 ft | 313 kts | 185° |
| 2026-05-06 19:01 | 50.39832 | 6.59875 | 19004 ft | 316 kts | 185° |
| 2026-05-06 19:01 | 50.37695 | 6.59684 | 20613 ft | 303 kts | 185° |
| 2026-05-06 19:02 | 50.35556 | 6.59489 | 21719 ft | 312 kts | 185° |
| 2026-05-06 19:02 | 50.33366 | 6.59291 | 21859 ft | 319 kts | 185° |
| 2026-05-06 19:02 | 50.31067 | 6.59083 | 21861 ft | 349 kts | 185° |
| 2026-05-06 19:02 | 50.28634 | 6.58866 | 21685 ft | 348 kts | 185° |
| 2026-05-06 19:03 | 50.26157 | 6.58646 | 20550 ft | 363 kts | 185° |
| 2026-05-06 19:03 | 50.23615 | 6.58417 | 19434 ft | 368 kts | 185° |
| 2026-05-06 19:03 | 50.21054 | 6.58188 | 18306 ft | 369 kts | 185° |
| 2026-05-06 19:03 | 50.18478 | 6.57959 | 16877 ft | 370 kts | 185° |
| 2026-05-06 19:04 | 50.15911 | 6.57729 | 15508 ft | 369 kts | 185° |
| 2026-05-06 19:04 | 50.13351 | 6.57503 | 14207 ft | 368 kts | 185° |
| 2026-05-06 19:04 | 50.10799 | 6.57275 | 12956 ft | 365 kts | 185° |
| 2026-05-06 19:04 | 50.08289 | 6.57050 | 11792 ft | 358 kts | 185° |
| 2026-05-06 19:05 | 50.05820 | 6.56830 | 10682 ft | 352 kts | 184° |
| 2026-05-06 19:05 | 50.03401 | 6.56617 | 9836 ft | 342 kts | 184° |
| 2026-05-06 19:05 | 50.01067 | 6.56410 | 9036 ft | 330 kts | 185° |
| 2026-05-06 19:05 | 49.98860 | 6.56043 | 8573 ft | 310 kts | 194° |
| 2026-05-06 19:06 | 49.96885 | 6.54999 | 8115 ft | 293 kts | 207° |
| 2026-05-06 19:06 | 49.95126 | 6.53561 | 7675 ft | 281 kts | 210° |
| 2026-05-06 19:06 | 49.93445 | 6.52189 | 7244 ft | 272 kts | 210° |
| 2026-05-06 19:06 | 49.91792 | 6.50850 | 6807 ft | 265 kts | 210° |
| 2026-05-06 19:07 | 49.90174 | 6.49531 | 6385 ft | 260 kts | 210° |
| 2026-05-06 19:07 | 49.88591 | 6.48239 | 5933 ft | 255 kts | 210° |
| 2026-05-06 19:07 | 49.86949 | 6.47217 | 5455 ft | 259 kts | 193° |
| 2026-05-06 19:07 | 49.85157 | 6.46872 | 5021 ft | 258 kts | 185° |
| 2026-05-06 19:08 | 49.83390 | 6.46669 | 4684 ft | 250 kts | 185° |
| 2026-05-06 19:08 | 49.81680 | 6.46477 | 4409 ft | 245 kts | 185° |
| 2026-05-06 19:08 | 49.79981 | 6.46263 | 4197 ft | 244 kts | 185° |
| 2026-05-06 19:08 | 49.78293 | 6.46045 | 3984 ft | 242 kts | 185° |
| 2026-05-06 19:09 | 49.76610 | 6.45827 | 3758 ft | 243 kts | 185° |
| 2026-05-06 19:09 | 49.74929 | 6.45618 | 3535 ft | 243 kts | 185° |
| 2026-05-06 19:09 | 49.73261 | 6.45250 | 3283 ft | 243 kts | 198° |
| 2026-05-06 19:09 | 49.71751 | 6.44114 | 3051 ft | 240 kts | 217° |
| 2026-05-06 19:10 | 49.70589 | 6.42391 | 2996 ft | 223 kts | 235° |
| 2026-05-06 19:10 | 49.69788 | 6.40462 | 2987 ft | 204 kts | 243° |
| 2026-05-06 19:10 | 49.69125 | 6.38638 | 2987 ft | 186 kts | 244° |
| 2026-05-06 19:10 | 49.68484 | 6.36895 | 2993 ft | 189 kts | 243° |
| 2026-05-06 19:11 | 49.67814 | 6.35090 | 2980 ft | 198 kts | 243° |
| 2026-05-06 19:11 | 49.67108 | 6.33180 | 2726 ft | 208 kts | 243° |
| 2026-05-06 19:11 | 49.66387 | 6.31255 | 2447 ft | 203 kts | 243° |
| 2026-05-06 19:11 | 49.65736 | 6.29485 | 2170 ft | 177 kts | 243° |
| 2026-05-06 19:12 | 49.65156 | 6.27924 | 1913 ft | 158 kts | 243° |
| 2026-05-06 19:12 | 49.64661 | 6.26590 | 1696 ft | 130 kts | 244° |
| 2026-05-06 19:12 | 49.64195 | 6.25317 | 1509 ft | 137 kts | 242° |
| 2026-05-06 19:12 | 49.63730 | 6.24077 | 1329 ft | 132 kts | 244° |
| 2026-05-06 19:13 | 49.63280 | 6.22849 | 1212 ft | 115 kts | 240° |
| 2026-05-06 19:13 | 49.63051 | 6.22233 | 1219 ft | 27 kts | 239° |
| 2026-05-06 19:13 | 49.62930 | 6.21910 | 1218 ft | 41 kts | 240° |
| 2026-05-06 19:13 | 49.62788 | 6.21531 | 1222 ft | 40 kts | 240° |
| 2026-05-06 19:14 | 49.62672 | 6.21173 | 1231 ft | 33 kts | 257° |
| 2026-05-06 19:14 | 49.62650 | 6.20899 | 1235 ft | 14 kts | 267° |
| 2026-05-06 19:14 | 49.62652 | 6.20798 | 1236 ft | 5 kts | 284° |
| 2026-05-06 19:14 | 49.62688 | 6.20745 | 1236 ft | 10 kts | 328° |
| 2026-05-06 19:15 | 49.62713 | 6.20647 | 1235 ft | 11 kts | 250° |
| 2026-05-06 19:15 | 49.62652 | 6.20560 | 1241 ft | 13 kts | 227° |
| 2026-05-06 19:15 | 49.62593 | 6.20456 | 1234 ft | 13 kts | 229° |
| 2026-05-06 19:15 | 49.62520 | 6.20325 | 1228 ft | 19 kts | 232° |
| 2026-05-06 19:16 | 49.62451 | 6.20156 | 1224 ft | 17 kts | 240° |
| 2026-05-06 19:16 | 49.62393 | 6.20002 | 1217 ft | 16 kts | 240° |
| 2026-05-06 19:16 | 49.62344 | 6.19870 | 1213 ft | 12 kts | 239° |
| 2026-05-06 19:16 | 49.62365 | 6.19785 | 1210 ft | 9 kts | 327° |
| 2026-05-06 19:17 | 49.62414 | 6.19742 | 1208 ft | 3 kts | 29° |
| 2026-05-06 19:17 | 49.62425 | 6.19766 | 1209 ft | 4 kts | 58° |
| 2026-05-06 19:17 | 49.62419 | 6.19793 | 1211 ft | 2 kts | 144° |
| 2026-05-06 19:17 | 49.62417 | 6.19795 | 1211 ft | 0 kts | 144° |